createdAt,value
2023-03-28T00:02:15.434Z,8.60
2023-03-28T00:07:07.418Z,3.03
2023-03-28T00:11:59.536Z,4.80
2023-03-28T00:16:52.264Z,4.50
2023-03-28T00:21:47.216Z,2.20
2023-03-28T00:26:39.542Z,1.60
2023-03-28T00:31:34.870Z,1.87
2023-03-28T00:36:29.201Z,2.60
2023-03-28T00:41:22.810Z,7.60
2023-03-28T00:46:22.824Z,2.87
2023-03-28T00:51:16.561Z,2.40
2023-03-28T00:56:12.105Z,2.70
2023-03-28T01:01:04.307Z,5.27
2023-03-28T01:13:02.265Z,1.97
2023-03-28T01:17:55.462Z,1.20
2023-03-28T01:23:18.277Z,7.67
2023-03-28T01:29:06.238Z,4.37
2023-03-28T01:34:01.614Z,3.80
2023-03-28T01:39:10.056Z,7.53
2023-03-28T01:44:17.412Z,5.23
2023-03-28T01:49:29.654Z,5.93
2023-03-28T01:54:39.902Z,4.03
2023-03-28T02:00:00.896Z,6.07
2023-03-28T02:04:58.831Z,6.30
2023-03-28T02:09:53.252Z,3.57
2023-03-28T02:15:15.076Z,5.90
2023-03-28T02:20:30.930Z,4.93
2023-03-28T02:25:37.394Z,6.63
2023-03-28T02:30:50.173Z,6.93
2023-03-28T02:35:49.942Z,4.80
2023-03-28T02:41:01.628Z,5.60
2023-03-28T02:46:15.219Z,4.40
2023-03-28T02:51:30.096Z,7.07
2023-03-28T02:56:51.208Z,7.83
2023-03-28T03:02:04.680Z,7.80
2023-03-28T03:06:56.852Z,5.13
2023-03-28T03:11:49.272Z,10.87
2023-03-28T03:16:43.192Z,5.53
2023-03-28T03:21:37.266Z,8.37
2023-03-28T03:26:29.234Z,3.70
2023-03-28T03:31:26.739Z,6.77
2023-03-28T03:36:38.103Z,3.20
2023-03-28T03:41:32.104Z,2.87
2023-03-28T03:46:24.257Z,3.30
2023-03-28T03:51:17.856Z,7.53
2023-03-28T03:56:10.738Z,7.53
2023-03-28T04:01:21.202Z,2.20
2023-03-28T04:06:14.249Z,2.43
2023-03-28T04:11:07.914Z,1.90
2023-03-28T04:16:04.755Z,4.63
2023-03-28T04:21:09.780Z,5.40
2023-03-28T04:26:08.757Z,3.70
2023-03-28T04:31:13.754Z,4.70
2023-03-28T04:36:29.334Z,3.10
2023-03-28T04:41:27.672Z,1.83
2023-03-28T04:46:51.076Z,1.23
2023-03-28T04:51:43.323Z,3.00
2023-03-28T04:56:36.541Z,1.67
2023-03-28T05:01:28.907Z,2.20
2023-03-28T05:06:41.146Z,4.80
2023-03-28T05:11:39.792Z,1.83
2023-03-28T05:16:32.483Z,1.90
2023-03-28T05:21:44.498Z,3.03
2023-03-28T05:26:36.822Z,3.57
2023-03-28T05:31:30.834Z,6.00
2023-03-28T05:36:39.412Z,2.07
2023-03-28T05:41:46.050Z,2.73
2023-03-28T05:46:38.063Z,2.37
2023-03-28T05:51:30.269Z,1.23
2023-03-28T05:56:24.063Z,4.60
2023-03-28T06:01:18.888Z,4.03
2023-03-28T06:06:18.095Z,8.93
2023-03-28T06:11:10.397Z,1.43
2023-03-28T06:16:15.519Z,4.00
2023-03-28T06:21:08.015Z,4.00
2023-03-28T06:26:00.225Z,5.10
2023-03-28T06:30:59.168Z,1.93
2023-03-28T06:35:51.707Z,3.13
2023-03-28T06:40:44.110Z,3.67
2023-03-28T06:45:36.282Z,3.20
2023-03-28T06:50:32.143Z,2.67
2023-03-28T06:55:34.896Z,1.80
2023-03-28T07:00:27.394Z,1.67
2023-03-28T07:05:41.560Z,4.53
2023-03-28T07:10:34.093Z,3.53
2023-03-28T07:15:26.217Z,1.80
2023-03-28T07:20:18.473Z,1.33
2023-03-28T07:25:11.255Z,1.07
2023-03-28T07:30:06.447Z,1.83
2023-03-28T07:34:59.764Z,2.00
2023-03-28T07:39:54.760Z,1.80
2023-03-28T07:44:49.496Z,2.73
2023-03-28T07:49:41.636Z,1.37
2023-03-28T07:54:34.630Z,1.73
2023-03-28T07:59:27.061Z,1.43
2023-03-28T08:04:19.347Z,2.70
2023-03-28T08:09:28.595Z,0.70
2023-03-28T08:14:43.555Z,1.50
2023-03-28T08:19:35.902Z,0.80
2023-03-28T08:24:36.956Z,2.47
2023-03-28T08:29:54.804Z,4.13
2023-03-28T08:34:47.033Z,2.13
2023-03-28T08:39:42.814Z,0.80
2023-03-28T08:44:48.724Z,1.93
2023-03-28T08:49:53.406Z,0.80
2023-03-28T08:54:59.930Z,3.50
2023-03-28T09:00:17.194Z,1.37
2023-03-28T09:05:23.763Z,7.33
2023-03-28T09:10:29.048Z,7.27
2023-03-28T09:15:59.917Z,1.90
2023-03-28T09:20:56.025Z,2.03
2023-03-28T09:26:14.419Z,12.63
2023-03-28T09:31:13.037Z,2.90
2023-03-28T09:36:12.387Z,1.50
2023-03-28T09:41:12.523Z,2.83
2023-03-28T09:46:11.876Z,1.00
2023-03-28T09:51:20.547Z,1.87
2023-03-28T09:56:18.846Z,0.83
2023-03-28T10:01:25.768Z,2.13
2023-03-28T10:06:40.236Z,0.90
2023-03-28T10:11:49.220Z,1.67
2023-03-28T10:16:43.841Z,2.57
2023-03-28T10:21:54.009Z,2.20
2023-03-28T10:26:50.557Z,2.37
2023-03-28T10:31:48.978Z,0.70
2023-03-28T10:37:24.781Z,2.60
2023-03-28T10:42:45.263Z,1.13
2023-03-28T10:48:04.922Z,0.50
2023-03-28T10:53:23.496Z,2.67
2023-03-28T10:58:35.107Z,2.10
2023-03-28T11:03:51.993Z,2.10
2023-03-28T11:09:08.808Z,1.43
2023-03-28T11:14:47.954Z,0.60
2023-03-28T11:19:49.374Z,0.50
2023-03-28T11:25:02.954Z,1.53
2023-03-28T11:30:28.291Z,0.53
2023-03-28T11:35:45.770Z,0.33
2023-03-28T11:40:47.869Z,0.97
2023-03-28T11:45:53.030Z,0.97
2023-03-28T11:51:10.957Z,1.23
2023-03-28T11:56:26.773Z,1.50
2023-03-28T12:01:35.397Z,0.50
2023-03-28T12:07:02.457Z,0.53
2023-03-28T12:12:14.154Z,0.70
2023-03-28T12:17:20.736Z,2.27
2023-03-28T12:22:32.721Z,3.53
2023-03-28T12:27:28.503Z,4.07
2023-03-28T12:32:45.190Z,2.63
2023-03-28T12:37:48.279Z,8.60
2023-03-28T12:42:44.529Z,2.03
2023-03-28T12:47:49.787Z,7.30
2023-03-28T12:52:45.487Z,6.10
2023-03-28T12:57:49.593Z,1.17
2023-03-28T13:03:28.406Z,2.03
2023-03-28T13:08:36.984Z,1.23
2023-03-28T13:14:01.812Z,1.60
2023-03-28T13:19:11.111Z,2.77
2023-03-28T13:24:03.154Z,1.87
2023-03-28T13:29:00.518Z,1.20
2023-03-28T13:33:59.773Z,1.80
2023-03-28T13:39:25.084Z,4.03
2023-03-28T13:44:30.024Z,3.20
2023-03-28T13:49:37.635Z,2.13
2023-03-28T13:54:32.525Z,6.07
2023-03-28T13:59:27.502Z,1.33
2023-03-28T14:04:26.443Z,4.27
2023-03-28T14:09:30.339Z,2.27
2023-03-28T14:14:44.277Z,2.23
2023-03-28T14:19:51.137Z,2.03
2023-03-28T14:24:45.264Z,5.83
2023-03-28T14:29:52.709Z,7.40
2023-03-28T14:34:47.717Z,2.00
2023-03-28T14:39:40.119Z,2.10
2023-03-28T14:44:37.166Z,3.53
2023-03-28T14:49:30.646Z,1.87
2023-03-28T14:54:39.407Z,2.07
2023-03-28T14:59:41.168Z,3.73
2023-03-28T15:04:33.931Z,3.70
2023-03-28T15:09:32.785Z,8.10
2023-03-28T15:14:30.113Z,5.03
2023-03-28T15:19:32.160Z,1.30
2023-03-28T15:24:26.572Z,2.27
2023-03-28T15:29:21.694Z,2.43
2023-03-28T15:34:27.434Z,4.37
2023-03-28T15:39:34.082Z,2.13
2023-03-28T15:44:28.298Z,3.57
2023-03-28T15:49:20.908Z,4.70
2023-03-28T15:54:28.011Z,3.37
2023-03-28T15:59:46.382Z,5.87
2023-03-28T16:04:38.445Z,3.20
2023-03-28T16:09:30.782Z,2.53
2023-03-28T16:14:22.850Z,3.03
2023-03-28T16:19:37.334Z,1.33
2023-03-28T16:24:29.840Z,1.20
2023-03-28T16:29:22.152Z,6.37
2023-03-28T16:34:14.378Z,4.07
2023-03-28T16:39:08.512Z,4.27
2023-03-28T16:44:01.339Z,4.07
2023-03-28T16:48:53.495Z,5.73
2023-03-28T16:53:45.748Z,5.70
2023-03-28T16:58:39.289Z,3.47
2023-03-28T17:03:31.358Z,4.73
2023-03-28T17:08:24.080Z,4.53
2023-03-28T17:13:17.707Z,3.67
2023-03-28T17:18:11.033Z,4.97
2023-03-28T17:23:03.939Z,5.27
2023-03-28T17:27:55.988Z,4.57
2023-03-28T17:32:49.370Z,4.53
2023-03-28T17:37:41.783Z,4.57
2023-03-28T17:42:33.941Z,2.57
2023-03-28T17:47:26.340Z,6.17
2023-03-28T17:52:19.212Z,2.93
2023-03-28T17:57:11.325Z,6.73
2023-03-28T18:02:04.304Z,4.00
2023-03-28T18:06:56.523Z,6.00
2023-03-28T18:11:48.564Z,4.20
2023-03-28T18:16:40.669Z,6.13
2023-03-28T18:21:33.728Z,6.20
2023-03-28T18:26:28.583Z,4.07
2023-03-28T18:31:27.989Z,7.13
2023-03-28T18:36:21.182Z,6.27
2023-03-28T18:41:13.392Z,7.20
2023-03-28T18:46:07.752Z,6.33
2023-03-28T18:51:03.692Z,9.13
2023-03-28T18:55:55.849Z,15.93
2023-03-28T19:00:48.476Z,9.03
2023-03-28T19:05:40.636Z,10.83
2023-03-28T19:10:32.704Z,7.43
2023-03-28T19:15:25.841Z,6.63
2023-03-28T19:20:19.708Z,7.77
2023-03-28T19:25:11.843Z,6.57
2023-03-28T19:30:05.856Z,4.60
2023-03-28T19:34:58.083Z,14.90
2023-03-28T19:39:50.419Z,7.37
2023-03-28T19:44:42.431Z,6.37
2023-03-28T19:49:34.583Z,5.80
2023-03-28T19:54:26.624Z,5.80
2023-03-28T19:59:18.682Z,7.47
2023-03-28T20:04:12.145Z,4.93
2023-03-28T20:09:04.370Z,4.17
2023-03-28T20:13:56.405Z,10.30
2023-03-28T20:18:48.479Z,6.10
2023-03-28T20:23:41.023Z,5.20
2023-03-28T20:28:33.845Z,8.53
2023-03-28T20:33:26.275Z,6.87
2023-03-28T20:38:18.312Z,6.10
2023-03-28T20:43:11.876Z,6.77
2023-03-28T20:48:06.396Z,8.17
2023-03-28T20:52:58.389Z,7.00
2023-03-28T20:57:50.406Z,6.17
2023-03-28T21:02:42.433Z,5.17
2023-03-28T21:07:35.039Z,9.17
2023-03-28T21:12:27.231Z,9.60
2023-03-28T21:17:25.435Z,7.03
2023-03-28T21:22:17.512Z,7.40
2023-03-28T21:27:09.469Z,11.97
2023-03-28T21:32:01.529Z,14.50
2023-03-28T21:36:53.421Z,16.10
2023-03-28T21:41:45.533Z,11.27
2023-03-28T21:46:37.481Z,11.27
2023-03-28T21:51:31.144Z,11.87
2023-03-28T21:56:23.228Z,13.13
2023-03-28T22:01:18.304Z,15.13
2023-03-28T22:06:10.945Z,14.67
2023-03-28T22:11:10.875Z,11.20
2023-03-28T22:16:04.253Z,16.30
2023-03-28T22:20:57.739Z,10.73
2023-03-28T22:25:50.554Z,7.53
2023-03-28T22:30:43.813Z,10.40
2023-03-28T22:35:36.310Z,8.10
2023-03-28T22:40:29.831Z,15.00
2023-03-28T22:45:22.927Z,7.70
2023-03-28T22:50:15.707Z,10.00
2023-03-28T22:55:13.426Z,7.67
2023-03-28T23:00:09.563Z,7.53
2023-03-28T23:05:03.888Z,8.93
2023-03-28T23:09:56.139Z,6.63
2023-03-28T23:14:48.641Z,8.10
2023-03-28T23:19:40.760Z,7.60
2023-03-28T23:24:35.491Z,8.20
2023-03-28T23:29:27.417Z,11.47
2023-03-28T23:34:19.487Z,8.53
2023-03-28T23:39:11.615Z,6.27
2023-03-28T23:44:04.349Z,6.07
2023-03-28T23:48:56.323Z,8.67
2023-03-28T23:53:48.371Z,7.70
2023-03-28T23:58:40.310Z,9.90
